San Austin — WDE5041 — position and weather

sailwx.info

Track history (hours):
 
Tides and Currents Weather Stations Pressure Air Temp Water Temp Dewpoint Dewpoint Depression Visibility Wind Speed Wind Dir Waves Ship Positions

San Austin

Owner: Buffalo Mariner Service, Inc., Houston, TX. More information available from US FCC via Universal Licensing System and Coast Guard Vessel Documentation Center.

Last reported at 2018-May-25 04:59 UTC. Time now 2018-May-25 05:23 UTC.
Position N 29°45' W 095°06'.

Length 20 m; draft 3.2 m.

Type: Tug. MMSI: 367361210.

Date/timePositionNaut miles runAvg speedWind from/ knotsBaromVisibWave heightAir tempDewpointWater temp
2018-May-25 04:59N 29°45' W 095°06'0 0.0
2018-May-25 04:30N 29°45' W 095°06'0 0.0
2018-May-25 03:59N 29°45' W 095°06'0 0.0
2018-May-25 03:30N 29°45' W 095°06'0 0.0
2018-May-25 03:00N 29°45' W 095°06'0 0.0
2018-May-25 02:30N 29°45' W 095°06'0 0.0
2018-May-25 01:57N 29°45' W 095°06'0 0.0
2018-May-25 01:30N 29°45' W 095°06'0 0.0
2018-May-25 01:00N 29°45' W 095°06'0 0.3
2018-May-25 00:29N 29°45' W 095°06'0 0.0
2018-May-24 23:38N 29°45' W 095°06'0 0.0
2018-May-24 23:30N 29°45' W 095°06'0 0.0
2018-May-24 20:30N 29°45' W 095°06'1 2.1
2018-May-24 19:59N 29°46' W 095°05'1 1.3
2018-May-24 19:20N 29°46' W 095°06'0 0.0
2018-May-24 13:36N 29°46' W 095°06'0 0.0
2018-May-24 08:35N 29°47' W 095°06'0 0.0
2018-May-24 08:29N 29°47' W 095°06'0 0.0
2018-May-24 04:17N 29°46' W 095°06'2 3.1
2018-May-24 03:34N 29°45' W 095°04'1 7.6
2018-May-24 03:30N 29°45' W 095°04'3 6.6
2018-May-24 03:00N 29°42' W 095°01'2 3.5
2018-May-24 02:30N 29°41' W 094°60'0 0.5
2018-May-24 02:00N 29°41' W 095°00'0 0.0
2018-May-24 01:30N 29°41' W 095°00'0 0.0
2018-May-24 00:58N 29°41' W 095°00'0 0.0
2018-May-23 23:48N 29°41' W 095°00'0 0.0
2018-May-23 23:24N 29°41' W 095°00'0 0.0
2018-May-23 23:00N 29°41' W 095°00'0 0.0
2018-May-23 22:30N 29°41' W 095°00'0 0.0
2018-May-23 22:00N 29°41' W 095°00'0 0.0
2018-May-23 21:30N 29°41' W 095°00'0 0.0
2018-May-23 21:00N 29°41' W 095°00'0 0.3
2018-May-23 20:30N 29°41' W 095°00'0 0.0
2018-May-23 20:00N 29°41' W 095°00'0 0.3
2018-May-23 19:30N 29°41' W 095°00'1 2.0
2018-May-23 19:00N 29°42' W 094°60'3 5.3
2018-May-23 18:30N 29°44' W 095°02'2 4.8
2018-May-23 17:59N 29°45' W 095°04'2 0.4
2018-May-23 13:45N 29°45' W 095°06'0 0.0
2018-May-23 13:06N 29°45' W 095°06'0 0.0
2018-May-23 12:48N 29°45' W 095°06'0 0.0
2018-May-23 12:29N 29°45' W 095°06'0 0.0
2018-May-23 11:33N 29°45' W 095°06'0 0.3
2018-May-23 11:16N 29°45' W 095°06'0 0.2
2018-May-23 11:00N 29°45' W 095°06'1 0.2
2018-May-23 04:41N 29°47' W 095°06'4 0.4
2018-May-22 18:18N 29°44' W 095°03'2 5.6
2018-May-22 17:56N 29°42' W 095°01'2 4.2
2018-May-22 17:30N 29°41' W 094°60'0 0.0
2018-May-22 17:00N 29°41' W 094°60'0 0.0
2018-May-22 16:30N 29°41' W 094°60'0 0.0
2018-May-22 16:00N 29°41' W 094°60'0 0.0
2018-May-22 15:30N 29°41' W 094°60'0 0.0
2018-May-22 15:00N 29°41' W 094°60'0 0.0
2018-May-22 14:30N 29°41' W 094°60'0 0.2
2018-May-22 14:00N 29°41' W 094°60'0 0.1
2018-May-22 13:30N 29°41' W 094°60'0 0.0
2018-May-22 12:59N 29°41' W 094°60'0 0.0
2018-May-22 12:30N 29°41' W 094°60'0 0.0
2018-May-22 12:00N 29°41' W 094°60'0 0.0
2018-May-22 11:30N 29°41' W 094°60'0 0.0
2018-May-22 11:00N 29°41' W 094°60'0 0.0
2018-May-22 10:30N 29°41' W 094°60'0 0.0
2018-May-22 10:00N 29°41' W 094°60'0 0.0
2018-May-22 09:30N 29°41' W 094°60'0 0.0
2018-May-22 09:00N 29°41' W 094°60'0 0.0
2018-May-22 08:30N 29°41' W 094°60'0 0.0
2018-May-22 08:00N 29°41' W 094°60'0 0.0
2018-May-22 07:30N 29°41' W 094°60'0 0.0
2018-May-22 07:00N 29°41' W 094°60'2 3.2
2018-May-22 06:30N 29°42' W 095°01'4 6.9
2018-May-22 05:56N 29°45' W 095°04'2 4.1
2018-May-22 05:30N 29°45' W 095°06'0 0.0
2018-May-22 04:43N 29°45' W 095°06'0 0.0
2018-May-22 04:30N 29°45' W 095°06'0 0.0
2018-May-22 03:54N 29°45' W 095°06'0 0.0
2018-May-22 03:25N 29°45' W 095°06'0 0.0
2018-May-22 03:00N 29°45' W 095°06'0 0.0
2018-May-22 02:30N 29°45' W 095°06'0 0.0
2018-May-22 01:53N 29°45' W 095°06'0 0.0
2018-May-22 01:30N 29°45' W 095°06'0 0.0
2018-May-22 01:00N 29°45' W 095°06'0 0.0
2018-May-22 00:30N 29°45' W 095°06'0 0.0
2018-May-21 23:06N 29°45' W 095°06'0 0.0
2018-May-21 19:02N 29°45' W 095°06'0 2.0
2018-May-21 19:00N 29°45' W 095°06'1 0.1
2018-May-21 05:01N 29°47' W 095°06'0 0.0
2018-May-21 04:46N 29°47' W 095°06'0 0.0
2018-May-21 04:22N 29°47' W 095°06'0 0.0
2018-May-21 03:59N 29°47' W 095°06'0 0.0
2018-May-21 03:29N 29°47' W 095°06'0 0.0
2018-May-21 03:00N 29°47' W 095°06'0 0.0
2018-May-20 23:53N 29°47' W 095°06'0 0.0
2018-May-20 22:29N 29°47' W 095°06'4 2.3
2018-May-20 20:38N 29°44' W 095°02'1 6.8
2018-May-20 20:25N 29°43' W 095°01'2 5.8
2018-May-20 20:00N 29°41' W 094°59'0 0.8
2018-May-20 19:30N 29°41' W 094°60'0 0.0
2018-May-20 19:00N 29°41' W 094°60'0 0.0
2018-May-20 18:29N 29°41' W 094°60'0 0.0
2018-May-20 18:00N 29°41' W 094°60'0 0.0
2018-May-20 17:30N 29°41' W 094°60'0 0.0
2018-May-20 17:00N 29°41' W 094°60'0 0.0
2018-May-20 16:30N 29°41' W 094°60'0 0.0
2018-May-20 16:00N 29°41' W 094°60'0 0.0
2018-May-20 15:30N 29°41' W 094°60'0 0.0
2018-May-20 14:58N 29°41' W 094°60'0 0.0
2018-May-20 14:30N 29°41' W 094°60'0 0.0
2018-May-20 13:58N 29°41' W 094°60'0 0.0
2018-May-20 13:30N 29°41' W 094°60'0 0.0
2018-May-20 13:00N 29°41' W 094°60'0 0.0
2018-May-20 12:30N 29°41' W 094°60'0 0.0
2018-May-20 12:00N 29°41' W 094°60'0 0.0
2018-May-20 11:29N 29°41' W 094°60'0 0.0
2018-May-20 11:00N 29°41' W 094°60'0 0.0
2018-May-20 10:27N 29°41' W 094°60'0 0.0
2018-May-20 09:59N 29°41' W 094°60'0 0.1
2018-May-20 09:30N 29°41' W 094°60'2 3.3
2018-May-20 09:00N 29°42' W 095°01'5 7.0
2018-May-20 08:17N 29°46' W 095°05'1 0.1
2018-May-20 00:50N 29°45' W 095°06'1 0.6
2018-May-19 22:18N 29°46' W 095°06'0 0.0
2018-May-19 21:59N 29°46' W 095°06'0 0.0
2018-May-19 18:52N 29°46' W 095°06'0 0.0
2018-May-19 18:10N 29°46' W 095°06'0 0.0
2018-May-19 05:52N 29°46' W 095°06'1 0.8
2018-May-19 04:39N 29°46' W 095°05'1 3.8
2018-May-19 04:30N 29°46' W 095°06'0 0.0
2018-May-18 17:11N 29°46' W 095°06'0 0.1
2018-May-18 16:39N 29°47' W 095°06'0 0.0
2018-May-18 11:04N 29°46' W 095°06'0 0.0
2018-May-18 10:54N 29°46' W 095°06'0 0.0
2018-May-18 10:30N 29°46' W 095°06'0 0.0
2018-May-18 10:00N 29°46' W 095°06'0 0.0
2018-May-18 09:30N 29°46' W 095°06'0 0.0
2018-May-18 09:00N 29°46' W 095°06'0 0.0
2018-May-18 08:29N 29°46' W 095°06'0 0.0
2018-May-18 08:00N 29°47' W 095°06'0 0.1
2018-May-18 07:29N 29°46' W 095°06'0 0.0
2018-May-18 07:00N 29°46' W 095°06'0 0.1
2018-May-18 06:30N 29°47' W 095°06'0 0.7
2018-May-18 06:00N 29°46' W 095°06'1 1.7
2018-May-18 05:30N 29°46' W 095°05'1 1.4
2018-May-18 05:00N 29°45' W 095°06'0 0.0
2018-May-18 04:30N 29°45' W 095°06'0 0.0
2018-May-18 04:00N 29°45' W 095°06'0 0.0
2018-May-18 03:30N 29°45' W 095°06'0 0.0
2018-May-18 03:00N 29°45' W 095°06'0 0.0
2018-May-18 02:30N 29°45' W 095°06'0 0.0
2018-May-18 02:00N 29°45' W 095°06'0 0.0
2018-May-18 01:29N 29°45' W 095°06'0 0.0
2018-May-17 21:10N 29°45' W 095°06'0 0.1
2018-May-17 20:54N 29°45' W 095°06'1 2.6
2018-May-17 20:30N 29°46' W 095°05'1 0.2
2018-May-17 15:07N 29°47' W 095°06'1 1.8
2018-May-17 14:42N 29°46' W 095°06'2 5.6
2018-May-17 14:23N 29°45' W 095°04'3 7.0
2018-May-17 13:59N 29°43' W 095°01'3 6.0
2018-May-17 13:31N 29°41' W 094°59'1 1.0
2018-May-17 13:00N 29°41' W 094°60'0 0.0
2018-May-17 12:30N 29°41' W 094°60'0 0.0
2018-May-17 12:00N 29°41' W 094°60'0 0.0
2018-May-17 11:30N 29°41' W 094°60'0 0.0
2018-May-17 11:00N 29°41' W 094°60'0 0.0
2018-May-17 10:30N 29°41' W 094°60'0 0.0
2018-May-17 10:00N 29°41' W 094°60'0 0.0
2018-May-17 09:30N 29°41' W 094°60'0 0.0
2018-May-17 09:00N 29°41' W 094°60'0 0.0
2018-May-17 08:30N 29°41' W 094°60'0 0.0
2018-May-17 08:00N 29°41' W 094°60'0 0.0
2018-May-17 07:29N 29°41' W 094°60'0 0.0
2018-May-17 07:00N 29°41' W 094°60'0 0.0
2018-May-17 06:30N 29°41' W 094°60'0 0.0
2018-May-17 06:00N 29°41' W 094°60'0 0.0
2018-May-17 05:30N 29°41' W 094°60'0 0.0
2018-May-17 05:00N 29°41' W 094°60'0 0.0
2018-May-17 04:30N 29°41' W 094°60'0 0.0
2018-May-17 04:00N 29°41' W 094°60'0 0.0
2018-May-17 03:30N 29°41' W 094°60'0 0.0
2018-May-17 03:00N 29°41' W 094°60'0 0.0
2018-May-17 02:30N 29°41' W 094°60'0 0.0
2018-May-17 02:00N 29°41' W 094°60'0 0.0
2018-May-17 01:30N 29°41' W 094°60'0 0.0
2018-May-17 01:00N 29°41' W 094°60'0 0.0
2018-May-17 00:30N 29°41' W 094°60'0 0.2
2018-May-17 00:01N 29°41' W 094°60'1 1.5
2018-May-16 23:31N 29°41' W 094°59'0 0.6
2018-May-16 23:00N 29°41' W 094°59'3 5.3
2018-May-16 22:30N 29°44' W 095°01'3 6.7
2018-May-16 21:59N 29°46' W 095°04'1 0.2
2018-May-16 17:26N 29°46' W 095°05'1 0.5
2018-May-16 15:08N 29°45' W 095°06'0 0.0
2018-May-16 14:55N 29°45' W 095°06'0 0.0
2018-May-16 14:30N 29°45' W 095°06'0 0.0
2018-May-16 13:58N 29°45' W 095°06'0 0.0
2018-May-16 13:30N 29°45' W 095°06'0 0.0
2018-May-16 13:00N 29°45' W 095°06'0 0.0
2018-May-16 12:30N 29°45' W 095°06'0 0.0
2018-May-16 12:00N 29°45' W 095°06'0 0.0
2018-May-16 11:30N 29°45' W 095°06'0 0.0
2018-May-16 11:00N 29°45' W 095°06'0 0.0
2018-May-16 10:30N 29°45' W 095°06'0 0.0
2018-May-16 10:00N 29°45' W 095°06'0 0.0
2018-May-16 09:30N 29°45' W 095°06'0 0.0
2018-May-16 08:59N 29°45' W 095°06'0 0.0
2018-May-16 08:30N 29°45' W 095°06'0 0.0
2018-May-16 08:00N 29°45' W 095°06'0 0.0
2018-May-16 07:30N 29°45' W 095°06'0 0.0
2018-May-16 07:00N 29°45' W 095°06'0 0.0
2018-May-16 06:30N 29°45' W 095°06'0 0.0
2018-May-16 06:00N 29°45' W 095°06'0 0.0
2018-May-16 05:30N 29°45' W 095°06'0 0.0
2018-May-16 05:00N 29°45' W 095°06'0 0.0
2018-May-16 04:30N 29°45' W 095°06'0 0.4
2018-May-16 04:00N 29°45' W 095°06'0 0.5
2018-May-16 03:30N 29°45' W 095°06'0 0.0
2018-May-16 03:00N 29°45' W 095°06'0 0.0
2018-May-16 02:30N 29°45' W 095°06'0 0.0
2018-May-16 02:00N 29°45' W 095°06'1 0.3
2018-May-15 23:07N 29°45' W 095°06'1 7.1
2018-May-15 23:00N 29°46' W 095°05'3 6.1
2018-May-15 22:30N 29°44' W 095°02'3 5.4
2018-May-15 22:00N 29°42' W 094°60'1 2.1
2018-May-15 21:30N 29°41' W 094°60'0 0.0
2018-May-15 21:00N 29°41' W 094°60'0 0.0
2018-May-15 20:30N 29°41' W 094°60'0 0.0
2018-May-15 20:00N 29°41' W 094°60'0 0.0
2018-May-15 19:30N 29°41' W 094°60'0 0.0
2018-May-15 18:54N 29°41' W 094°60'0 0.0
2018-May-15 18:30N 29°41' W 094°60'0 0.0
2018-May-15 17:59N 29°41' W 094°60'0 0.0
2018-May-15 17:30N 29°41' W 094°60'0 0.0
2018-May-15 17:00N 29°41' W 094°60'0 0.0
2018-May-15 16:30N 29°41' W 094°60'0 0.0
2018-May-15 16:00N 29°41' W 094°60'0 0.0
2018-May-15 15:30N 29°41' W 094°60'0 0.0
2018-May-15 14:56N 29°41' W 094°60'0 0.1
2018-May-15 14:30N 29°41' W 094°60'0 0.1
2018-May-15 14:00N 29°41' W 094°60'0 0.0
2018-May-15 13:30N 29°41' W 094°60'0 0.0
2018-May-15 13:00N 29°41' W 094°60'0 0.0
2018-May-15 12:29N 29°41' W 094°60'0 0.0
2018-May-15 12:00N 29°41' W 094°60'0 0.8
2018-May-15 11:30N 29°41' W 095°00'2 3.0
2018-May-15 11:00N 29°42' W 095°01'3 5.8
2018-May-15 10:30N 29°44' W 095°03'2 4.5
2018-May-15 10:00N 29°45' W 095°06'0 0.2
2018-May-15 09:30N 29°45' W 095°06'0 0.0
2018-May-15 09:00N 29°45' W 095°06'0 0.0
2018-May-15 08:30N 29°45' W 095°06'0 0.0
2018-May-15 08:00N 29°45' W 095°06'0 0.0
2018-May-15 07:24N 29°45' W 095°06'0 0.0
2018-May-15 07:00N 29°45' W 095°06'0 0.0
2018-May-15 06:29N 29°45' W 095°06'0 0.0
2018-May-15 06:00N 29°45' W 095°06'0 0.0
2018-May-15 05:30N 29°45' W 095°06'  
Track history (hours):
 
Tides and Currents Weather Stations Pressure Air Temp Water Temp Dewpoint Dewpoint Depression Visibility Wind Speed Wind Dir Waves Ship Positions

San Austin

Owner: Buffalo Mariner Service, Inc., Houston, TX. More information available from US FCC via Universal Licensing System and Coast Guard Vessel Documentation Center.

Last reported at 2018-May-25 04:59 UTC. Time now 2018-May-25 05:23 UTC.
Position N 29°45' W 095°06'.

Length 20 m; draft 3.2 m.

Type: Tug. MMSI: 367361210.

Date/timePositionNaut miles runAvg speedWind from/ knotsBaromVisibWave heightAir tempDewpointWater temp
2018-May-25 04:59N 29°45' W 095°06'0 0.0
2018-May-25 04:30N 29°45' W 095°06'0 0.0
2018-May-25 03:59N 29°45' W 095°06'0 0.0
2018-May-25 03:30N 29°45' W 095°06'0 0.0
2018-May-25 03:00N 29°45' W 095°06'0 0.0
2018-May-25 02:30N 29°45' W 095°06'0 0.0
2018-May-25 01:57N 29°45' W 095°06'0 0.0
2018-May-25 01:30N 29°45' W 095°06'0 0.0
2018-May-25 01:00N 29°45' W 095°06'0 0.3
2018-May-25 00:29N 29°45' W 095°06'0 0.0
2018-May-24 23:38N 29°45' W 095°06'0 0.0
2018-May-24 23:30N 29°45' W 095°06'0 0.0
2018-May-24 20:30N 29°45' W 095°06'1 2.1
2018-May-24 19:59N 29°46' W 095°05'1 1.3
2018-May-24 19:20N 29°46' W 095°06'0 0.0
2018-May-24 13:36N 29°46' W 095°06'0 0.0
2018-May-24 08:35N 29°47' W 095°06'0 0.0
2018-May-24 08:29N 29°47' W 095°06'0 0.0
2018-May-24 04:17N 29°46' W 095°06'2 3.1
2018-May-24 03:34N 29°45' W 095°04'1 7.6
2018-May-24 03:30N 29°45' W 095°04'3 6.6
2018-May-24 03:00N 29°42' W 095°01'2 3.5
2018-May-24 02:30N 29°41' W 094°60'0 0.5
2018-May-24 02:00N 29°41' W 095°00'0 0.0
2018-May-24 01:30N 29°41' W 095°00'0 0.0
2018-May-24 00:58N 29°41' W 095°00'0 0.0
2018-May-23 23:48N 29°41' W 095°00'0 0.0
2018-May-23 23:24N 29°41' W 095°00'0 0.0
2018-May-23 23:00N 29°41' W 095°00'0 0.0
2018-May-23 22:30N 29°41' W 095°00'0 0.0
2018-May-23 22:00N 29°41' W 095°00'0 0.0
2018-May-23 21:30N 29°41' W 095°00'0 0.0
2018-May-23 21:00N 29°41' W 095°00'0 0.3
2018-May-23 20:30N 29°41' W 095°00'0 0.0
2018-May-23 20:00N 29°41' W 095°00'0 0.3
2018-May-23 19:30N 29°41' W 095°00'1 2.0
2018-May-23 19:00N 29°42' W 094°60'3 5.3
2018-May-23 18:30N 29°44' W 095°02'2 4.8
2018-May-23 17:59N 29°45' W 095°04'2 0.4
2018-May-23 13:45N 29°45' W 095°06'0 0.0
2018-May-23 13:06N 29°45' W 095°06'0 0.0
2018-May-23 12:48N 29°45' W 095°06'0 0.0
2018-May-23 12:29N 29°45' W 095°06'0 0.0
2018-May-23 11:33N 29°45' W 095°06'0 0.3
2018-May-23 11:16N 29°45' W 095°06'0 0.2
2018-May-23 11:00N 29°45' W 095°06'1 0.2
2018-May-23 04:41N 29°47' W 095°06'4 0.4
2018-May-22 18:18N 29°44' W 095°03'2 5.6
2018-May-22 17:56N 29°42' W 095°01'2 4.2
2018-May-22 17:30N 29°41' W 094°60'0 0.0
2018-May-22 17:00N 29°41' W 094°60'0 0.0
2018-May-22 16:30N 29°41' W 094°60'0 0.0
2018-May-22 16:00N 29°41' W 094°60'0 0.0
2018-May-22 15:30N 29°41' W 094°60'0 0.0
2018-May-22 15:00N 29°41' W 094°60'0 0.0
2018-May-22 14:30N 29°41' W 094°60'0 0.2
2018-May-22 14:00N 29°41' W 094°60'0 0.1
2018-May-22 13:30N 29°41' W 094°60'0 0.0
2018-May-22 12:59N 29°41' W 094°60'0 0.0
2018-May-22 12:30N 29°41' W 094°60'0 0.0
2018-May-22 12:00N 29°41' W 094°60'0 0.0
2018-May-22 11:30N 29°41' W 094°60'0 0.0
2018-May-22 11:00N 29°41' W 094°60'0 0.0
2018-May-22 10:30N 29°41' W 094°60'0 0.0
2018-May-22 10:00N 29°41' W 094°60'0 0.0
2018-May-22 09:30N 29°41' W 094°60'0 0.0
2018-May-22 09:00N 29°41' W 094°60'0 0.0
2018-May-22 08:30N 29°41' W 094°60'0 0.0
2018-May-22 08:00N 29°41' W 094°60'0 0.0
2018-May-22 07:30N 29°41' W 094°60'0 0.0
2018-May-22 07:00N 29°41' W 094°60'2 3.2
2018-May-22 06:30N 29°42' W 095°01'4 6.9
2018-May-22 05:56N 29°45' W 095°04'2 4.1
2018-May-22 05:30N 29°45' W 095°06'0 0.0
2018-May-22 04:43N 29°45' W 095°06'0 0.0
2018-May-22 04:30N 29°45' W 095°06'0 0.0
2018-May-22 03:54N 29°45' W 095°06'0 0.0
2018-May-22 03:25N 29°45' W 095°06'0 0.0
2018-May-22 03:00N 29°45' W 095°06'0 0.0
2018-May-22 02:30N 29°45' W 095°06'0 0.0
2018-May-22 01:53N 29°45' W 095°06'0 0.0
2018-May-22 01:30N 29°45' W 095°06'0 0.0
2018-May-22 01:00N 29°45' W 095°06'0 0.0
2018-May-22 00:30N 29°45' W 095°06'0 0.0
2018-May-21 23:06N 29°45' W 095°06'0 0.0
2018-May-21 19:02N 29°45' W 095°06'0 2.0
2018-May-21 19:00N 29°45' W 095°06'1 0.1
2018-May-21 05:01N 29°47' W 095°06'0 0.0
2018-May-21 04:46N 29°47' W 095°06'0 0.0
2018-May-21 04:22N 29°47' W 095°06'0 0.0
2018-May-21 03:59N 29°47' W 095°06'0 0.0
2018-May-21 03:29N 29°47' W 095°06'0 0.0
2018-May-21 03:00N 29°47' W 095°06'0 0.0
2018-May-20 23:53N 29°47' W 095°06'0 0.0
2018-May-20 22:29N 29°47' W 095°06'4 2.3
2018-May-20 20:38N 29°44' W 095°02'1 6.8
2018-May-20 20:25N 29°43' W 095°01'2 5.8
2018-May-20 20:00N 29°41' W 094°59'0 0.8
2018-May-20 19:30N 29°41' W 094°60'0 0.0
2018-May-20 19:00N 29°41' W 094°60'0 0.0
2018-May-20 18:29N 29°41' W 094°60'0 0.0
2018-May-20 18:00N 29°41' W 094°60'0 0.0
2018-May-20 17:30N 29°41' W 094°60'0 0.0
2018-May-20 17:00N 29°41' W 094°60'0 0.0
2018-May-20 16:30N 29°41' W 094°60'0 0.0
2018-May-20 16:00N 29°41' W 094°60'0 0.0
2018-May-20 15:30N 29°41' W 094°60'0 0.0
2018-May-20 14:58N 29°41' W 094°60'0 0.0
2018-May-20 14:30N 29°41' W 094°60'0 0.0
2018-May-20 13:58N 29°41' W 094°60'0 0.0
2018-May-20 13:30N 29°41' W 094°60'0 0.0
2018-May-20 13:00N 29°41' W 094°60'0 0.0
2018-May-20 12:30N 29°41' W 094°60'0 0.0
2018-May-20 12:00N 29°41' W 094°60'0 0.0
2018-May-20 11:29N 29°41' W 094°60'0 0.0
2018-May-20 11:00N 29°41' W 094°60'0 0.0
2018-May-20 10:27N 29°41' W 094°60'0 0.0
2018-May-20 09:59N 29°41' W 094°60'0 0.1
2018-May-20 09:30N 29°41' W 094°60'2 3.3
2018-May-20 09:00N 29°42' W 095°01'5 7.0
2018-May-20 08:17N 29°46' W 095°05'1 0.1
2018-May-20 00:50N 29°45' W 095°06'1 0.6
2018-May-19 22:18N 29°46' W 095°06'0 0.0
2018-May-19 21:59N 29°46' W 095°06'0 0.0
2018-May-19 18:52N 29°46' W 095°06'0 0.0
2018-May-19 18:10N 29°46' W 095°06'0 0.0
2018-May-19 05:52N 29°46' W 095°06'1 0.8
2018-May-19 04:39N 29°46' W 095°05'1 3.8
2018-May-19 04:30N 29°46' W 095°06'0 0.0
2018-May-18 17:11N 29°46' W 095°06'0 0.1
2018-May-18 16:39N 29°47' W 095°06'0 0.0
2018-May-18 11:04N 29°46' W 095°06'0 0.0
2018-May-18 10:54N 29°46' W 095°06'0 0.0
2018-May-18 10:30N 29°46' W 095°06'0 0.0
2018-May-18 10:00N 29°46' W 095°06'0 0.0
2018-May-18 09:30N 29°46' W 095°06'0 0.0
2018-May-18 09:00N 29°46' W 095°06'0 0.0
2018-May-18 08:29N 29°46' W 095°06'0 0.0
2018-May-18 08:00N 29°47' W 095°06'0 0.1
2018-May-18 07:29N 29°46' W 095°06'0 0.0
2018-May-18 07:00N 29°46' W 095°06'0 0.1
2018-May-18 06:30N 29°47' W 095°06'0 0.7
2018-May-18 06:00N 29°46' W 095°06'1 1.7
2018-May-18 05:30N 29°46' W 095°05'1 1.4
2018-May-18 05:00N 29°45' W 095°06'0 0.0
2018-May-18 04:30N 29°45' W 095°06'0 0.0
2018-May-18 04:00N 29°45' W 095°06'0 0.0
2018-May-18 03:30N 29°45' W 095°06'0 0.0
2018-May-18 03:00N 29°45' W 095°06'0 0.0
2018-May-18 02:30N 29°45' W 095°06'0 0.0
2018-May-18 02:00N 29°45' W 095°06'0 0.0
2018-May-18 01:29N 29°45' W 095°06'0 0.0
2018-May-17 21:10N 29°45' W 095°06'0 0.1
2018-May-17 20:54N 29°45' W 095°06'1 2.6
2018-May-17 20:30N 29°46' W 095°05'1 0.2
2018-May-17 15:07N 29°47' W 095°06'1 1.8
2018-May-17 14:42N 29°46' W 095°06'2 5.6
2018-May-17 14:23N 29°45' W 095°04'3 7.0
2018-May-17 13:59N 29°43' W 095°01'3 6.0
2018-May-17 13:31N 29°41' W 094°59'1 1.0
2018-May-17 13:00N 29°41' W 094°60'0 0.0
2018-May-17 12:30N 29°41' W 094°60'0 0.0
2018-May-17 12:00N 29°41' W 094°60'0 0.0
2018-May-17 11:30N 29°41' W 094°60'0 0.0
2018-May-17 11:00N 29°41' W 094°60'0 0.0
2018-May-17 10:30N 29°41' W 094°60'0 0.0
2018-May-17 10:00N 29°41' W 094°60'0 0.0
2018-May-17 09:30N 29°41' W 094°60'0 0.0
2018-May-17 09:00N 29°41' W 094°60'0 0.0
2018-May-17 08:30N 29°41' W 094°60'0 0.0
2018-May-17 08:00N 29°41' W 094°60'0 0.0
2018-May-17 07:29N 29°41' W 094°60'0 0.0
2018-May-17 07:00N 29°41' W 094°60'0 0.0
2018-May-17 06:30N 29°41' W 094°60'0 0.0
2018-May-17 06:00N 29°41' W 094°60'0 0.0
2018-May-17 05:30N 29°41' W 094°60'0 0.0
2018-May-17 05:00N 29°41' W 094°60'0 0.0
2018-May-17 04:30N 29°41' W 094°60'0 0.0
2018-May-17 04:00N 29°41' W 094°60'0 0.0
2018-May-17 03:30N 29°41' W 094°60'0 0.0
2018-May-17 03:00N 29°41' W 094°60'0 0.0
2018-May-17 02:30N 29°41' W 094°60'0 0.0
2018-May-17 02:00N 29°41' W 094°60'0 0.0
2018-May-17 01:30N 29°41' W 094°60'0 0.0
2018-May-17 01:00N 29°41' W 094°60'0 0.0
2018-May-17 00:30N 29°41' W 094°60'0 0.2
2018-May-17 00:01N 29°41' W 094°60'1 1.5
2018-May-16 23:31N 29°41' W 094°59'0 0.6
2018-May-16 23:00N 29°41' W 094°59'3 5.3
2018-May-16 22:30N 29°44' W 095°01'3 6.7
2018-May-16 21:59N 29°46' W 095°04'1 0.2
2018-May-16 17:26N 29°46' W 095°05'1 0.5
2018-May-16 15:08N 29°45' W 095°06'0 0.0
2018-May-16 14:55N 29°45' W 095°06'0 0.0
2018-May-16 14:30N 29°45' W 095°06'0 0.0
2018-May-16 13:58N 29°45' W 095°06'0 0.0
2018-May-16 13:30N 29°45' W 095°06'0 0.0
2018-May-16 13:00N 29°45' W 095°06'0 0.0
2018-May-16 12:30N 29°45' W 095°06'0 0.0
2018-May-16 12:00N 29°45' W 095°06'0 0.0
2018-May-16 11:30N 29°45' W 095°06'0 0.0
2018-May-16 11:00N 29°45' W 095°06'0 0.0
2018-May-16 10:30N 29°45' W 095°06'0 0.0
2018-May-16 10:00N 29°45' W 095°06'0 0.0
2018-May-16 09:30N 29°45' W 095°06'0 0.0
2018-May-16 08:59N 29°45' W 095°06'0 0.0
2018-May-16 08:30N 29°45' W 095°06'0 0.0
2018-May-16 08:00N 29°45' W 095°06'0 0.0
2018-May-16 07:30N 29°45' W 095°06'0 0.0
2018-May-16 07:00N 29°45' W 095°06'0 0.0
2018-May-16 06:30N 29°45' W 095°06'0 0.0
2018-May-16 06:00N 29°45' W 095°06'0 0.0
2018-May-16 05:30N 29°45' W 095°06'0 0.0
2018-May-16 05:00N 29°45' W 095°06'0 0.0
2018-May-16 04:30N 29°45' W 095°06'0 0.4
2018-May-16 04:00N 29°45' W 095°06'0 0.5
2018-May-16 03:30N 29°45' W 095°06'0 0.0
2018-May-16 03:00N 29°45' W 095°06'0 0.0
2018-May-16 02:30N 29°45' W 095°06'0 0.0
2018-May-16 02:00N 29°45' W 095°06'1 0.3
2018-May-15 23:07N 29°45' W 095°06'1 7.1
2018-May-15 23:00N 29°46' W 095°05'3 6.1
2018-May-15 22:30N 29°44' W 095°02'3 5.4
2018-May-15 22:00N 29°42' W 094°60'1 2.1
2018-May-15 21:30N 29°41' W 094°60'0 0.0
2018-May-15 21:00N 29°41' W 094°60'0 0.0
2018-May-15 20:30N 29°41' W 094°60'0 0.0
2018-May-15 20:00N 29°41' W 094°60'0 0.0
2018-May-15 19:30N 29°41' W 094°60'0 0.0
2018-May-15 18:54N 29°41' W 094°60'0 0.0
2018-May-15 18:30N 29°41' W 094°60'0 0.0
2018-May-15 17:59N 29°41' W 094°60'0 0.0
2018-May-15 17:30N 29°41' W 094°60'0 0.0
2018-May-15 17:00N 29°41' W 094°60'0 0.0
2018-May-15 16:30N 29°41' W 094°60'0 0.0
2018-May-15 16:00N 29°41' W 094°60'0 0.0
2018-May-15 15:30N 29°41' W 094°60'0 0.0
2018-May-15 14:56N 29°41' W 094°60'0 0.1
2018-May-15 14:30N 29°41' W 094°60'0 0.1
2018-May-15 14:00N 29°41' W 094°60'0 0.0
2018-May-15 13:30N 29°41' W 094°60'0 0.0
2018-May-15 13:00N 29°41' W 094°60'0 0.0
2018-May-15 12:29N 29°41' W 094°60'0 0.0
2018-May-15 12:00N 29°41' W 094°60'0 0.8
2018-May-15 11:30N 29°41' W 095°00'2 3.0
2018-May-15 11:00N 29°42' W 095°01'3 5.8
2018-May-15 10:30N 29°44' W 095°03'2 4.5
2018-May-15 10:00N 29°45' W 095°06'0 0.2
2018-May-15 09:30N 29°45' W 095°06'0 0.0
2018-May-15 09:00N 29°45' W 095°06'0 0.0
2018-May-15 08:30N 29°45' W 095°06'0 0.0
2018-May-15 08:00N 29°45' W 095°06'0 0.0
2018-May-15 07:24N 29°45' W 095°06'0 0.0
2018-May-15 07:00N 29°45' W 095°06'0 0.0
2018-May-15 06:29N 29°45' W 095°06'0 0.0
2018-May-15 06:00N 29°45' W 095°06'0 0.0
2018-May-15 05:30N 29°45' W 095°06'  

Dump ship's entire track history